Melrose, MA

9:49 AM EDT on April 21, 2015 (GMT -0400)
Beverly Municipal | | Change Station
CLOSE
Current Station
Airport
Location: Beverly,
Elevation: 108 ft
Nearby Weather Stations

Elev 108 ft 42.58 °N, 70.92 °W | Updated 35 minutes ago

Overcast
Overcast
53 °F
Feels Like 53 °F
N
4
Wind Variable Wind from West

Today
High -- | Low -- °F
--% Chance of Precip.
Yesterday
High -- | Low -- °F
Precip. -- in
5:54 AM 7:32 PM
Waxing Crescent, 10% visible
Pressure 29.53 in
Visibility 0.2 miles
Clouds
Dew Point 51 °F
Humidity 93%
Rainfall 0.42 in
Snow Depth Not available.
UV Not available.
Pollen 4.30 out of 12
Air Quality Not available.
Flu Activity Widespread
SPECI KBVY 211314Z 27003KT 1/4SM FG VV002 12/11 A2953 RMK AO2 RAE1255 P0000 T01170106

More Conditions Fewer Conditions

Pressure 29.53 in
Visibility 0.2 miles
Clouds
Dew Point 51 °F
Humidity 93%
Rainfall 0.42 in
Snow Depth Not available.
UV Not available.
Pollen 4.30 out of 12
Air Quality Not available.
Flu Activity Widespread
SPECI KBVY 211314Z 27003KT 1/4SM FG VV002 12/11 A2953 RMK AO2 RAE1255 P0000 T01170106

More Conditions Fewer Conditions

10-Day Weather Forecast

Almanac

Astronomy

Apr. 21, 2015 Rise Set
Actual Time
Civil Twilight
Nautical Twilight
Astronomical Twilight
Moon
Length of Visible Light
Length of Day
Tomorrow will be .
, % of the Moon is Illuminated

Today's Extremes

State Highs State Lows

Community

WunderPhotos

Upload Photos

1,815,383 photos uploaded!

WunderBlogs® & News

Nearby

Air Quality

  Air Quality AQ Index Pollutant
Not available.

Snow Depth

Station Depth Elevation

Earthquake Activity

City Distance Mag. Time & Date
Minimum magnitude displayed is 2.5.

Coastal Water Temperatures

Place Temperature

Stations

Nearby Weather Stations

Station Location Temp. Windchill Dew Point Humidity Wind Precip. Elev Updated Type
                   
Special Statement
Statement as of 8:14 AM EDT on April 21, 2015

... Patchy dense fog early this morning but conditions will be
improving over the next few hours...

Patchy dense fog was affecting portions of central and eastern
Massachusetts... as well as Rhode Island early this morning.
Conditions should improve over the next few hours... but motorists
are urged to drive with extra caution early this morning.


Frank